Tiempo atmosférico en la estación meteorológica de Renteria, Gipuzkoa (165 m.)



Fecha
DESCASC
Temp. máxima en grados centígrados (hora)
DESCASC
Temp. mínima en grados centígrados (hora)
DESCASC
Temp. media en grados centígrados
DESCASC
Racha de viento máxima en m/sg (hora)
DESCASC
Velocidad máxima media en intervalos de 10 minutos(hora)
DESCASC
Precipitaciones diarias en mm
DESCASC
Precipitaciones de 00:00 a 06:00 en mm
DESCASC
Precipitaciones de 06:00 a 12:00 en mm
DESCASC
Precipitaciones de 12:00 a 18:00 en mm
DESCASC
Precipitaciones de 18:00 a 24:00 en mm
DESCASC
22-01-2020 -- (--) -- (--) -- -- (--) -- (--) -- 0 -- 0 0
21-01-2020 4.1 (16:40) -1 (03:30) 1.5 3.33 (13:40) 1.67 (13:40) 0 0 0 0 0
20-01-2020 5.5 (14:00) 0.9 (23:59) 3.2 9.72 (07:10) 4.17 (07:10) 0 0 0 0 0
19-01-2020 8.1 (16:30) 3.7 (00:00) 5.9 11.11 (19:40) 5.83 (16:50) 0 0 0 0 0
18-01-2020 15.1 (15:40) 4.3 (00:00) 9.7 16.11 (15:50) 8.06 (15:50) 0 0 0 0 0
17-01-2020 15.5 (00:00) 5.8 (00:00) 10.7 14.17 (03:10) 9.17 (03:10) 0 0 0 0 0
16-01-2020 17.9 (14:50) 7.2 (00:00) 12.5 14.17 (21:50) 7.78 (09:00) 0 0 0 0 0
15-01-2020 16 (15:30) 6.8 (00:00) 11.4 22.5 (04:20) 10.83 (04:10) 0 0 0 0 0
14-01-2020 16.2 (13:20) 10.6 (00:00) 13.4 14.17 (14:10) 8.06 (06:20) 0 0 0 0 0
13-01-2020 15.6 (15:10) 1.1 (00:00) 8.4 12.22 (22:40) 7.22 (22:40) 0 0 0 0 0
12-01-2020 13.7 (14:30) -0.4 (00:00) 6.6 3.33 (15:20) 1.94 (15:20) 0 0 0 0 0
11-01-2020 13.4 (14:10) 1.6 (00:00) 7.5 2.5 (05:00) 1.11 (15:20) 0 0 0 0 0
10-01-2020 11.1 (15:30) 5.5 (00:00) 8.3 7.22 (16:00) 3.89 (16:10) 0 0 0 0 0
09-01-2020 17.8 (14:30) 5.3 (00:00) 11.5 14.72 (14:50) 8.33 (14:40) 0 0 0 0 0
08-01-2020 17.6 (15:30) 4.5 (00:00) 11.1 3.89 (15:10) 2.22 (15:10) 0.2 0.2 0 0 0
07-01-2020 16.3 (16:00) 3.9 (00:00) 10.1 3.89 (14:10) 2.22 (14:10) 0 0 0 0 0
06-01-2020 14.4 (14:20) 0.2 (00:00) 7.3 4.17 (16:00) 2.5 (19:10) 0 0 0 0 0
05-01-2020 12.8 (15:00) 3.5 (00:00) 8.2 4.72 (14:50) 2.22 (14:50) 0 0 0 0 0
04-01-2020 11.7 (11:30) 6.4 (00:00) 9 4.17 (12:00) 2.22 (12:00) 0.2 0 0 0.2 0
03-01-2020 9.5 (14:50) 1.5 (00:00) 5.5 3.89 (07:30) 2.5 (07:40) 0 0 0 0 0
02-01-2020 14.4 (14:20) -0.3 (00:00) 7 2.5 (14:20) 1.39 (14:20) 0.2 0.2 0 0 0
01-01-2020 15.5 (15:00) 3.1 (00:00) 9.3 5.28 (04:10) 3.33 (04:20) 0 0 0 0 0
31-12-2019 14 (15:50) 0.2 (00:00) 7.1 5.28 (14:50) 2.78 (14:50) 0.4 0.2 0 0 0.2
30-12-2019 -- (--) -- (--) -- -- (--) -- (--) -- 0 0 0.2 --
29-12-2019 13.6 (15:20) 0.6 (00:00) 7.1 2.5 (19:10) 1.67 (19:10) 0.2 0 0.2 0 0
28-12-2019 15.1 (15:20) 1 (00:00) 8.1 3.33 (14:20) 1.94 (14:20) 0.2 0 0.2 0 0
27-12-2019 15.6 (15:20) 1 (00:00) 8.3 2.78 (14:30) 1.67 (14:30) 0.2 0.2 0 0 0
26-12-2019 16.1 (02:40) 4.3 (00:00) 10.2 10.83 (08:00) 3.61 (04:20) 0.2 0.2 0 0 0
25-12-2019 20.7 (15:20) 5.5 (00:00) 13.1 4.17 (23:59) 2.5 (23:10) 0.2 0 0.2 0 0

Gráficas

Temp. máximas Temp. mínimas Temp. medias Precipitaciones Rachas de viento máximas Velocidades máximas media en intervalos de 10 minutos

Datos horarios

Fecha y hora oficial Temperatura (ºC) Velocidad del viento (km/h) Dirección del viento Racha (km/h) Dirección de racha Precipitación (mm) Presión (hPa) Tendencia (hPa) Humedad (%)
2020-01-23 23:00:00 10.1 10 Sudeste 32 Este 0 -- -- 70
2020-01-23 22:00:00 10.1 9 Sudeste 28 Sudeste 0 -- -- 70
2020-01-23 21:00:00 9.7 9 Sur 30 Sudoeste 0 -- -- 73
2020-01-23 20:00:00 9.8 9 Este 17 Este 0 -- -- 73
2020-01-23 19:00:00 9.9 9 Sudeste 18 Sudeste 0 -- -- 75
2020-01-23 18:00:00 9.8 5 Nordeste 27 Este 0 -- -- 79
2020-01-23 17:00:00 10.3 6 Sudeste 23 Sudeste 0 -- -- 78
2020-01-23 16:00:00 10.5 5 Este 12 Sudeste 0 -- -- 82
2020-01-23 15:00:00 10.1 0 Calma 6 Norte 0 -- -- 99
2020-01-23 14:00:00 9.3 0 Calma 4 Sudoeste 0 -- -- 100
2020-01-23 13:00:00 8 0 Calma 2 Norte 0 -- -- 100
2020-01-23 12:00:00 7.1 0 Calma 4 Noroeste 0 -- -- 100
2020-01-23 11:00:00 6.1 2 Noroeste 9 Norte 0.6 -- -- 100
2020-01-23 10:00:00 5.2 0 Calma 3 Sudoeste 0.4 -- -- 100
2020-01-23 09:00:00 5.1 0 Calma 4 Norte 1.2 -- -- 100
2020-01-23 08:00:00 4.9 0 Calma 5 Nordeste 1 -- -- 100
2020-01-23 07:00:00 4.5 0 Calma 4 Sudeste 0 -- -- 100
2020-01-23 06:00:00 4.3 0 Calma 7 Sur 0 -- -- 100
2020-01-23 05:00:00 4.5 3 Norte 8 Norte 0 -- -- 100
2020-01-23 04:00:00 4.8 3 Noroeste 7 Norte 0 -- -- 99
2020-01-23 03:00:00 5.3 0 Calma 6 Norte 0 -- -- 98
2020-01-23 02:00:00 5.7 2 Sudeste 4 Sudeste 0 -- -- 97
2020-01-23 01:00:00 6 3 Sudoeste 7 Norte 0 -- -- 96
2020-01-23 00:00:00 6.4 0 Calma 8 Norte 0 -- -- 95
2020-01-22 23:00:00 6.4 3 Noroeste 9 Norte 0 -- -- 96
2020-01-22 22:00:00 6.4 0 Calma 5 Sudoeste 0 -- -- 95
2020-01-22 21:00:00 6.6 3 Sudeste 5 Sudeste 0 -- -- 94
2020-01-22 20:00:00 7.1 4 Sudoeste 6 Noroeste 0 -- -- 92
2020-01-22 19:00:00 8 2 Sudoeste 5 Sudoeste 0 -- -- 88
2020-01-22 18:00:00 9 4 Sudoeste 9 Sudoeste 0 -- -- 83
2020-01-22 17:00:00 10 2 Sudoeste 12 Norte 0 -- -- 78
2020-01-22 16:00:00 10.9 4 Norte 13 Norte 0 -- -- 76
2020-01-22 15:00:00 11.3 2 Oeste 8 Sudoeste 0 -- -- 71
2020-01-22 14:00:00 10.6 2 Nordeste 6 Sudoeste 0 -- -- 79
2020-01-22 13:00:00 7.5 3 Sur 4 Sur 0 -- -- 90
2020-01-22 12:00:00 6.2 0 Calma -- -- -- -- -- 94
2020-01-22 11:00:00 -- -- -- -- -- -- -- -- --
2020-01-22 10:00:00 4.7 0 Calma 4 Sudeste 0 -- -- 97
2020-01-22 09:00:00 4.4 0 Calma 4 Sudeste 0 -- -- 96
2020-01-22 08:00:00 4.5 2 Sudoeste 7 Noroeste 0 -- -- 95
2020-01-22 07:00:00 4.4 2 Sur 8 Norte 0 -- -- 95
2020-01-22 06:00:00 4.4 0 Calma 5 Norte 0 -- -- 94
2020-01-22 05:00:00 4.3 0 Calma 5 Sur 0 -- -- 94
2020-01-22 04:00:00 4.3 3 Noroeste 7 Norte 0 -- -- 95
2020-01-22 03:00:00 4.1 3 Sur 4 Sur 0 -- -- 94
2020-01-22 02:00:00 4 0 Calma 4 Sur 0 -- -- 93
2020-01-22 01:00:00 3.9 0 Calma 5 Norte 0 -- -- 93
2020-01-22 00:00:00 3.8 0 Calma 4 Sudeste 0 -- -- 93
2020-01-21 23:00:00 3.7 0 Calma 4 Sur 0 -- -- 92
2020-01-21 22:00:00 3.7 0 Calma 8 Nordeste 0 -- -- 92
2020-01-21 21:00:00 3.7 0 Calma 4 Sudeste 0 -- -- 91
2020-01-21 20:00:00 3.8 0 Calma -- -- 0 -- -- 91
2020-01-21 19:00:00 3.8 0 Calma 3 Sudoeste 0 -- -- 88
2020-01-21 18:00:00 4 2 Sur 4 Sudeste 0 -- -- 87
2020-01-21 17:00:00 4.1 0 Calma 4 Este 0 -- -- 87
2020-01-21 16:00:00 3.8 3 Sur 10 Sudoeste 0 -- -- 87
2020-01-21 15:00:00 3.7 4 Sudoeste 8 Sudoeste 0 -- -- 89
2020-01-21 14:00:00 3.5 3 Sudoeste 12 Sudoeste 0 -- -- 89
2020-01-21 13:00:00 3.2 3 Sudoeste 8 Sudoeste 0 -- -- 89
2020-01-21 12:00:00 2.5 3 Sudoeste 6 Sudoeste 0 -- -- 94
2020-01-21 11:00:00 1.5 0 Calma 5 Sudoeste 0 -- -- 96
2020-01-21 10:00:00 0.9 2 Sudoeste 4 Sudoeste 0 -- -- 97
2020-01-21 09:00:00 0.4 2 Sur 6 Sudoeste 0 -- -- 98
2020-01-21 08:00:00 -0.1 0 Calma 5 Sudoeste 0 -- -- 99
2020-01-21 07:00:00 -0.6 0 Calma 5 Sudoeste 0 -- -- 99
2020-01-21 06:00:00 -0.8 2 Sudoeste 4 Sudoeste 0 -- -- 98
2020-01-21 05:00:00 -1 4 Sur 7 Sudoeste 0 -- -- 98
2020-01-21 04:00:00 -1 3 Sudoeste 5 Sur 0 -- -- 97
2020-01-21 03:00:00 -0.7 3 Sudoeste 5 Sur 0 -- -- 95
2020-01-21 02:00:00 -0.2 4 Sudoeste 5 Sur 0 -- -- 94
2020-01-21 01:00:00 0.2 0 Calma 5 Sudoeste 0 -- -- 91
2020-01-21 00:00:00 0.9 3 Sudoeste 8 Sudoeste 0 -- -- 87
2020-01-20 23:00:00 1.9 4 Sur 12 Sudoeste 0 -- -- 84
2020-01-20 22:00:00 3.5 3 Sudoeste 16 Noroeste 0 -- -- 72
2020-01-20 21:00:00 3.9 6 Noroeste 21 Norte 0 -- -- 70
2020-01-20 20:00:00 3.8 3 Sudoeste 6 Oeste 0 -- -- 73
2020-01-20 19:00:00 3.9 3 Sudoeste 9 Noroeste 0 -- -- 74
2020-01-20 18:00:00 4.3 3 Oeste 10 Noroeste 0 -- -- 71
2020-01-20 17:00:00 4.5 4 Noroeste 21 Noroeste 0 -- -- 68
2020-01-20 16:00:00 4.9 9 Noroeste 19 Noroeste 0 -- -- 69
2020-01-20 15:00:00 5.1 7 Noroeste 17 Noroeste 0 -- -- 65
2020-01-20 14:00:00 5.5 4 Noroeste 13 Sudoeste 0 -- -- 67
2020-01-20 13:00:00 4.9 6 Sudoeste 10 Sudoeste 0 -- -- 71
2020-01-20 12:00:00 3.8 2 Sudoeste 13 Nordeste 0 -- -- 70
2020-01-20 11:00:00 4.9 8 Sur 17 Sudeste 0 -- -- 66
2020-01-20 10:00:00 2.4 3 Noroeste 25 Norte 0 -- -- 82
2020-01-20 09:00:00 1.7 7 Norte 21 Norte 0 -- -- 79
2020-01-20 08:00:00 1.9 9 Nordeste 35 Norte 0 -- -- 76
2020-01-20 07:00:00 2 15 Norte 31 Nordeste 0 -- -- 79
2020-01-20 06:00:00 2 7 Nordeste 19 Nordeste 0 -- -- 80
2020-01-20 05:00:00 2.3 3 Noroeste 19 Noroeste 0 -- -- 77
2020-01-20 04:00:00 2.6 10 Noroeste 24 Noroeste 0 -- -- 76
2020-01-20 03:00:00 2.9 10 Noroeste 20 Oeste 0 -- -- 74
2020-01-20 02:00:00 3.2 7 Noroeste 21 Noroeste 0 -- -- 72
2020-01-20 01:00:00 3.5 8 Noroeste 29 Noroeste 0 -- -- 69
2020-01-20 00:00:00 3.7 11 Norte 37 Noroeste 0 -- -- 71
2020-01-19 23:00:00 3.9 10 Norte 33 Noroeste 0 -- -- 74
2020-01-19 22:00:00 4.5 18 Norte 38 Noroeste 0 -- -- 72
2020-01-19 21:00:00 5 12 Norte 39 Noroeste 0 -- -- 67
2020-01-19 20:00:00 5.9 17 Norte 40 Noroeste 0 -- -- 64
2020-01-19 19:00:00 6.3 12 Noroeste 28 Noroeste 0 -- -- 60
2020-01-19 18:00:00 6.8 12 Noroeste 38 Noroeste 0 -- -- 58
2020-01-19 17:00:00 7.5 16 Noroeste 34 Noroeste 0 -- -- 58
2020-01-19 16:00:00 7.5 12 Noroeste 28 Noroeste 0 -- -- 61
2020-01-19 15:00:00 7.1 16 Noroeste 35 Noroeste 0 -- -- 67
2020-01-19 14:00:00 7.4 10 Noroeste 32 Noroeste 0 -- -- 70
2020-01-19 13:00:00 7.5 6 Norte 22 Norte 0 -- -- 76
2020-01-19 12:00:00 6.6 7 Noroeste 19 Norte 0 -- -- 77
2020-01-19 11:00:00 6.2 0 Calma 13 Noroeste 0 -- -- 83
2020-01-19 10:00:00 4.9 9 Noroeste 19 Noroeste 0 -- -- 88
2020-01-19 09:00:00 5 10 Noroeste 21 Noroeste 0 -- -- 91
2020-01-19 08:00:00 5.6 0 Calma 17 Noroeste 0 -- -- 93
2020-01-19 07:00:00 6.1 5 Oeste 19 Noroeste 0 -- -- 94
2020-01-19 06:00:00 6.9 3 Noroeste 15 Noroeste 0 -- -- 93
2020-01-19 05:00:00 7.1 6 Noroeste 16 Norte 0 -- -- 95
2020-01-19 04:00:00 6.7 3 Norte 11 Este 0 -- -- 100
2020-01-19 03:00:00 6.8 6 Norte 11 Nordeste 0 -- -- 100
2020-01-19 02:00:00 6.7 3 Sudoeste 10 Norte 0 -- -- 99
2020-01-19 01:00:00 6.7 3 Este 9 Este 0 -- -- 98
2020-01-19 00:00:00 6.9 3 Este 8 Sudeste 0 -- -- 95
2020-01-18 23:00:00 7.1 3 Sudeste 14 Este 0 -- -- 95
2020-01-18 22:00:00 7.6 0 Calma 10 Sudeste 0 -- -- 96
2020-01-18 21:00:00 8.2 3 Sudeste 19 Oeste 0 -- -- 90
2020-01-18 20:00:00 9.2 5 Sudeste 21 Sudoeste 0 -- -- 91
2020-01-18 19:00:00 11.5 9 Norte 31 Este 0 -- -- 75
2020-01-18 18:00:00 12.1 17 Sudeste 47 Sudeste 0 -- -- 64
2020-01-18 17:00:00 13.1 22 Sur 44 Sudoeste 0 -- -- 61
2020-01-18 16:00:00 15 28 Sur 58 Sudoeste 0 -- -- 54
2020-01-18 15:00:00 13.8 18 Sur 43 Sudeste 0 -- -- 53
2020-01-18 14:00:00 12.9 20 Este 39 Sur 0 -- -- 53
2020-01-18 13:00:00 13.3 14 Sudeste 33 Este 0 -- -- 52
2020-01-18 12:00:00 12.5 18 Sudeste 36 Este 0 -- -- 55
2020-01-18 11:00:00 11.6 14 Sudeste 36 Sur 0 -- -- 59
2020-01-18 10:00:00 9.1 9 Este 23 Sudeste 0 -- -- 65
2020-01-18 09:00:00 8.1 5 Sudeste 21 Sudeste 0 -- -- 71
2020-01-18 08:00:00 5.6 6 Norte 13 Norte 0 -- -- 97
2020-01-18 07:00:00 5.4 5 Norte 10 Noroeste 0 -- -- 98
2020-01-18 06:00:00 5.3 0 Calma 10 Norte 0 -- -- 96
2020-01-18 05:00:00 5.3 11 Norte 18 Norte 0 -- -- 97
2020-01-18 04:00:00 4.7 3 Sudoeste 10 Norte 0 -- -- 97
2020-01-18 03:00:00 4.3 2 Sudeste 7 Noroeste 0 -- -- 99
2020-01-18 02:00:00 4.8 3 Noroeste 9 Norte 0 -- -- 99
2020-01-18 01:00:00 5.3 3 Noroeste 6 Sudeste 0 -- -- 98
2020-01-18 00:00:00 5.8 4 Noroeste 9 Noroeste 0 -- -- 98
2020-01-17 23:00:00 5.9 0 Calma 9 Noroeste 0 -- -- 96
2020-01-17 22:00:00 6.3 0 Calma 13 Norte 0 -- -- 94
2020-01-17 21:00:00 6.6 5 Norte 14 Norte 0 -- -- 95
2020-01-17 20:00:00 7.8 4 Sudeste 27 Nordeste 0 -- -- 85
2020-01-17 19:00:00 8.9 2 Norte 14 Nordeste 0 -- -- 89
2020-01-17 18:00:00 9.4 2 Norte 15 Noroeste 0 -- -- 82
2020-01-17 17:00:00 9.7 2 Norte 31 Norte 0 -- -- 84
2020-01-17 16:00:00 10.6 4 Nordeste 27 Sudoeste 0 -- -- 73
2020-01-17 15:00:00 11.5 10 Sur 21 Sur 0 -- -- 72
2020-01-17 14:00:00 10.6 10 Sur 27 Sudoeste 0 -- -- 77
2020-01-17 13:00:00 11.2 8 Sudoeste 27 Sudoeste 0 -- -- 79
2020-01-17 12:00:00 9.1 3 Nordeste 24 Oeste 0 -- -- 87
2020-01-17 11:00:00 8.7 2 Sudeste 12 Nordeste 0 -- -- 92
2020-01-17 10:00:00 8.5 2 Este 18 Nordeste 0 -- -- 95
2020-01-17 09:00:00 8.7 4 Sur 21 Noroeste 0 -- -- 92
2020-01-17 08:00:00 10.1 3 Nordeste 23 Noroeste 0 -- -- 92
2020-01-17 07:00:00 11.8 5 Noroeste 14 Noroeste 0 -- -- 65
2020-01-17 06:00:00 12.4 9 Norte 14 Norte 0 -- -- 64
2020-01-17 05:00:00 13.8 9 Sudoeste 28 Sudoeste 0 -- -- 53
2020-01-17 04:00:00 14.2 16 Sur 51 Sur 0 -- -- 51
2020-01-17 03:00:00 14.1 20 Sur 36 Sur 0 -- -- 55
2020-01-17 02:00:00 15.3 7 Sudoeste 37 Sur 0 -- -- 51
2020-01-17 01:00:00 15.3 17 Sur 48 Sur 0 -- -- 50
2020-01-17 00:00:00 15.5 27 Sur 48 Sudoeste 0 -- -- 47
2020-01-16 23:00:00 15.4 19 Sur 45 Sudeste 0 -- -- 50
2020-01-16 22:00:00 15.6 18 Sur 51 Sudeste 0 -- -- 53
2020-01-16 21:00:00 15.5 15 Sur 45 Sudoeste 0 -- -- 56
2020-01-16 20:00:00 15.7 22 Sur 45 Sudeste 0 -- -- 58
2020-01-16 19:00:00 16 19 Sur 40 Sudeste 0 -- -- 58
2020-01-16 18:00:00 16.2 15 Sudeste 32 Sudeste 0 -- -- 58
2020-01-16 17:00:00 16.2 16 Este 38 Este 0 -- -- 57
2020-01-16 16:00:00 16.3 15 Sudeste 39 Sur 0 -- -- 56
2020-01-16 15:00:00 17.8 17 Sur 39 Sudeste 0 -- -- 52
2020-01-16 14:00:00 17.4 16 Este 42 Sudeste 0 -- -- 53
2020-01-16 13:00:00 16.8 20 Sudeste 42 Sudeste 0 -- -- 54
2020-01-16 12:00:00 15.3 22 Este 42 Nordeste 0 -- -- 58
2020-01-16 11:00:00 15.1 19 Sudeste 44 Sudeste 0 -- -- 57
2020-01-16 10:00:00 14.5 21 Este 46 Nordeste 0 -- -- 61
2020-01-16 09:00:00 13.5 28 Este 48 Este 0 -- -- 61
2020-01-16 08:00:00 13.3 17 Sudeste 34 Sur 0 -- -- 61
2020-01-16 07:00:00 13.6 14 Sudeste 39 Este 0 -- -- 60
2020-01-16 06:00:00 13.4 17 Sudeste 36 Sudeste 0 -- -- 60
2020-01-16 05:00:00 13.1 15 Sudeste 36 Sudeste 0 -- -- 60
2020-01-16 04:00:00 13.5 13 Sudeste 28 Sudeste 0 -- -- 58
2020-01-16 03:00:00 13.1 14 Sudeste 25 Sudeste 0 -- -- 57
2020-01-16 02:00:00 13.3 11 Sudeste 27 Sur 0 -- -- 58
2020-01-16 01:00:00 11.1 11 Sudeste 18 Este 0 -- -- 66
2020-01-16 00:00:00 7.2 3 Sur 9 Noroeste 0 -- -- 88
2020-01-15 23:00:00 7 2 Norte 12 Norte 0 -- -- 91
2020-01-15 22:00:00 8 5 Noroeste 13 Noroeste 0 -- -- 86
2020-01-15 21:00:00 8.5 6 Noroeste 13 Noroeste 0 -- -- 89
2020-01-15 20:00:00 10 6 Norte 11 Noroeste 0 -- -- 83
2020-01-15 19:00:00 12.7 3 Sur 13 Sur 0 -- -- 72
2020-01-15 18:00:00 14.1 5 Sur 19 Sudeste 0 -- -- 56
2020-01-15 17:00:00 15.3 11 Sudeste 21 Este 0 -- -- 52
2020-01-15 16:00:00 15.5 5 Nordeste 28 Sur 0 -- -- 50
2020-01-15 15:00:00 14.1 14 Este 33 Nordeste 0 -- -- 53
2020-01-15 14:00:00 13.5 13 Este 47 Este 0 -- -- 54
2020-01-15 13:00:00 13.7 18 Sur 48 Sudeste 0 -- -- 53
2020-01-15 12:00:00 14 27 Sudeste 59 Sur 0 -- -- 52
2020-01-15 11:00:00 14.3 19 Sudeste 51 Sur 0 -- -- 51
2020-01-15 10:00:00 13.7 22 Sudeste 67 Sur 0 -- -- 52
2020-01-15 09:00:00 11.7 18 Este 48 Este 0 -- -- 56
2020-01-15 08:00:00 11.5 19 Sudeste 50 Sudeste 0 -- -- 56
2020-01-15 07:00:00 11.2 25 Este 52 Este 0 -- -- 57
2020-01-15 06:00:00 12 20 Sur 44 Sur 0 -- -- 53
2020-01-15 05:00:00 13.3 32 Sur 81 Sudeste 0 -- -- 54
2020-01-15 04:00:00 12.2 31 Sur 54 Sudeste 0 -- -- 56
2020-01-15 03:00:00 11.6 17 Sur 41 Sudeste 0 -- -- 54
2020-01-15 02:00:00 11.4 21 Este 40 Este 0 -- -- 53
2020-01-15 01:00:00 11.3 15 Sur 29 Sudeste 0 -- -- 54
2020-01-15 00:00:00 11.2 15 Sudeste 40 Sudeste 0 -- -- 53
2020-01-14 23:00:00 11 17 Sur 42 Sudeste 0 -- -- 53
2020-01-14 22:00:00 11.3 24 Sudeste 46 Sur 0 -- -- 52
2020-01-14 21:00:00 10.8 9 Sudeste 22 Sudeste 0 -- -- 52
2020-01-14 20:00:00 11 10 Sur 44 Sur 0 -- -- 51
2020-01-14 19:00:00 11.1 21 Sur 37 Sudoeste 0 -- -- 52
2020-01-14 18:00:00 12 10 Sur 40 Sur 0 -- -- 47
2020-01-14 17:00:00 14.4 13 Sudeste 40 Sudeste 0 -- -- 39
2020-01-14 16:00:00 15.4 17 Sur 37 Sur 0 -- -- 40
2020-01-14 15:00:00 14.7 22 Sudeste 51 Sur 0 -- -- 41
2020-01-14 14:00:00 15.6 23 Sudeste 46 Este 0 -- -- 43
2020-01-14 13:00:00 15.9 16 Este 36 Este 0 -- -- 48
2020-01-14 12:00:00 14.1 17 Sudeste 37 Sudeste 0 -- -- 51
2020-01-14 11:00:00 12.7 23 Sudeste 42 Sur 0 -- -- 53
2020-01-14 10:00:00 11.6 22 Sudeste 45 Sudeste 0 -- -- 56
2020-01-14 09:00:00 11.4 22 Sudeste 39 Sudeste 0 -- -- 56
2020-01-14 08:00:00 11.3 23 Sudeste 37 Sur 0 -- -- 56
2020-01-14 07:00:00 11.6 24 Sudeste 50 Sur 0 -- -- 52
2020-01-14 06:00:00 11.8 21 Sudeste 41 Sudeste 0 -- -- 49
2020-01-14 05:00:00 11.6 26 Este 44 Sudeste 0 -- -- 50
2020-01-14 04:00:00 11.6 20 Sur 45 Sudeste 0 -- -- 45
2020-01-14 03:00:00 12.3 19 Sudeste 38 Este 0 -- -- 42
2020-01-14 02:00:00 11.8 21 Este 41 Este 0 -- -- 44
2020-01-14 01:00:00 11.3 16 Este 36 Este 0 -- -- 43
2020-01-14 00:00:00 11.5 15 Este 40 Este 0 -- -- 37
2020-01-13 23:00:00 11.9 21 Este 44 Este 0 -- -- 38
2020-01-13 22:00:00 12.2 15 Este 41 Sudeste 0 -- -- 38
2020-01-13 21:00:00 12.5 18 Sudeste 31 Sudeste 0 -- -- 36
2020-01-13 20:00:00 12.4 14 Sudeste 34 Este 0 -- -- 38
2020-01-13 19:00:00 12.8 13 Este 27 Nordeste 0 -- -- 36
2020-01-13 18:00:00 13.3 14 Este 32 Este 0 -- -- 36
2020-01-13 17:00:00 14.5 14 Este 31 Sudeste 0 -- -- 37
2020-01-13 16:00:00 15.3 13 Este 27 Sudeste 0 -- -- 33
2020-01-13 15:00:00 15.3 11 Sudeste 31 Este 0 -- -- 34
2020-01-13 14:00:00 14.4 16 Este 36 Este 0 -- -- 42
2020-01-13 13:00:00 13.2 19 Sur 31 Sudeste 0 -- -- 51
2020-01-13 12:00:00 8.7 6 Noroeste 14 Norte 0 -- -- 87
2020-01-13 11:00:00 5.4 5 Noroeste 16 Norte 0 -- -- 100
2020-01-13 10:00:00 4.6 8 Norte 14 Norte 0 -- -- 100
2020-01-13 09:00:00 3.2 6 Norte 11 Noroeste 0 -- -- 100
2020-01-13 08:00:00 2.4 4 Noroeste 13 Noroeste 0 -- -- 100
2020-01-13 07:00:00 2.7 5 Norte 13 Noroeste 0 -- -- 100
2020-01-13 06:00:00 1.5 0 Calma 6 Norte 0 -- -- 100
2020-01-13 05:00:00 1.6 3 Noroeste 6 Noroeste 0 -- -- 100
2020-01-13 04:00:00 1.2 0 Calma 4 Sur 0 -- -- 100
2020-01-13 03:00:00 1.4 0 Calma 4 Oeste 0 -- -- 100
2020-01-13 02:00:00 1.8 0 Calma 4 Oeste 0 -- -- 100
2020-01-13 01:00:00 2 0 Calma 7 Noroeste 0 -- -- 100
2020-01-13 00:00:00 2.2 4 Noroeste 8 Noroeste 0 -- -- 99
2020-01-12 23:00:00 2.7 0 Calma 5 Sur 0 -- -- 98
2020-01-12 22:00:00 3.4 0 Calma 5 Noroeste 0 -- -- 96
2020-01-12 21:00:00 4.3 3 Oeste 6 Noroeste 0 -- -- 95
2020-01-12 20:00:00 5.5 3 Oeste 6 Noroeste 0 -- -- 93
2020-01-12 19:00:00 6.9 3 Noroeste 5 Sudeste 0 -- -- 92
2020-01-12 18:00:00 8.8 3 Sur 6 Sudoeste 0 -- -- 80
2020-01-12 17:00:00 12.6 4 Sudoeste 8 Noroeste 0 -- -- 63
2020-01-12 16:00:00 12.5 4 Noroeste 12 Noroeste 0 -- -- 62
2020-01-12 15:00:00 12.7 4 Norte 10 Noroeste 0 -- -- 61
2020-01-12 14:00:00 11.8 0 Calma 5 Sur 0 -- -- 68
2020-01-12 13:00:00 9.8 0 Calma 4 Sur 0 -- -- 70
2020-01-12 12:00:00 7.6 0 Calma 4 Sur 0 -- -- 80
2020-01-12 11:00:00 3.9 0 Calma 3 Sur 0 -- -- 100
2020-01-12 10:00:00 1.5 0 Calma 5 Sudeste 0 -- -- 100
2020-01-12 09:00:00 -0.3 0 Calma 3 Sudeste 0 -- -- 100
2020-01-12 08:00:00 -0.3 0 Calma 3 Sudeste 0 -- -- 100
2020-01-12 07:00:00 -0.2 0 Calma 4 Sudeste 0 -- -- 100
2020-01-12 06:00:00 -0.1 0 Calma 4 Noroeste 0 -- -- 100
2020-01-12 05:00:00 0.1 0 Calma 4 Sudeste 0 -- -- 100
2020-01-12 04:00:00 0.4 0 Calma 3 Sudeste 0 -- -- 100
2020-01-12 03:00:00 0.5 0 Calma 4 Sudeste 0 -- -- 100
2020-01-12 02:00:00 0.7 0 Calma 5 Oeste 0 -- -- 100
2020-01-12 01:00:00 1.2 0 Calma 5 Sudeste 0 -- -- 99
2020-01-12 00:00:00 1.6 0 Calma 5 Noroeste 0 -- -- 99
2020-01-11 23:00:00 2 2 Sudoeste 5 Noroeste 0 -- -- 99
2020-01-11 22:00:00 2.7 3 Sur 6 Sudeste 0 -- -- 97
2020-01-11 21:00:00 3.9 2 Noroeste 8 Este 0 -- -- 94
2020-01-11 20:00:00 4.9 0 Calma 6 Noroeste 0 -- -- 92
2020-01-11 19:00:00 6 0 Calma 5 Sudeste 0 -- -- 89
2020-01-11 18:00:00 8.3 4 Sudoeste 5 Sur 0 -- -- 81
2020-01-11 17:00:00 12 3 Sudoeste 7 Sudoeste 0 -- -- 61
2020-01-11 16:00:00 11.9 2 Noroeste 9 Oeste 0 -- -- 55
2020-01-11 15:00:00 13.2 4 Sur 9 Oeste 0 -- -- 58
2020-01-11 14:00:00 12.8 0 Calma 5 Sur 0 -- -- 59
2020-01-11 13:00:00 11.2 3 Sur 5 Sur 0 -- -- 78
2020-01-11 12:00:00 8.8 0 Calma 4 Sur 0 -- -- 86
2020-01-11 11:00:00 5.7 0 Calma 3 Sudoeste 0 -- -- 100
2020-01-11 10:00:00 3.2 0 Calma 3 Sur 0 -- -- 100
2020-01-11 09:00:00 1.9 0 Calma 4 Oeste 0 -- -- 100
2020-01-11 08:00:00 2.3 2 Sur 4 Sudeste 0 -- -- 100
2020-01-11 07:00:00 2.7 0 Calma 5 Sudeste 0 -- -- 100
2020-01-11 06:00:00 2.9 2 Sudoeste 6 Sudeste 0 -- -- 100
2020-01-11 05:00:00 3.2 4 Oeste 9 Norte 0 -- -- 100
2020-01-11 04:00:00 3.4 0 Calma 6 Noroeste 0 -- -- 100
2020-01-11 03:00:00 3.9 0 Calma 5 Oeste 0 -- -- 100
2020-01-11 02:00:00 4.4 0 Calma 2 Sur 0 -- -- 100
2020-01-11 01:00:00 4.8 0 Calma 5 Noroeste 0 -- -- 100
2020-01-11 00:00:00 5.5 0 Calma 7 Noroeste 0 -- -- 100
2020-01-10 23:00:00 6.6 0 Calma 2 Sudoeste 0 -- -- 100
2020-01-10 22:00:00 7.1 0 Calma 4 Sudoeste 0 -- -- 100
2020-01-10 21:00:00 7.8 2 Sudoeste 5 Sudoeste 0 -- -- 100
2020-01-10 20:00:00 8.2 0 Calma 4 Sudoeste 0 -- -- 100
2020-01-10 19:00:00 8.4 3 Sudoeste 5 Sur 0 -- -- 99
2020-01-10 18:00:00 8.7 3 Sudoeste 9 Noroeste 0 -- -- 96
2020-01-10 17:00:00 9.2 4 Noroeste 24 Noroeste 0 -- -- 89
2020-01-10 16:00:00 10.2 13 Noroeste 26 Noroeste 0 -- -- 85
2020-01-10 15:00:00 10.5 7 Oeste 23 Noroeste 0 -- -- 83
2020-01-10 14:00:00 10.2 5 Norte 18 Noroeste 0 -- -- 93
2020-01-10 13:00:00 9.7 8 Noroeste 24 Norte 0 -- -- 94
2020-01-10 12:00:00 9.2 3 Este 14 Norte 0 -- -- 96
2020-01-10 11:00:00 8.8 2 Sur 16 Sudoeste 0 -- -- 95
2020-01-10 10:00:00 8.4 4 Este 11 Norte 0 -- -- 95
2020-01-10 09:00:00 8.3 3 Nordeste 21 Noroeste 0 -- -- 92
2020-01-10 08:00:00 8.6 2 Oeste 12 Nordeste 0 -- -- 90
2020-01-10 07:00:00 8.6 4 Este 13 Oeste 0 -- -- 86
2020-01-10 06:00:00 8.3 4 Norte 26 Sur 0 -- -- 87
2020-01-10 05:00:00 8.1 4 Nordeste 12 Oeste 0 -- -- 90
2020-01-10 04:00:00 8.1 3 Noroeste 9 Oeste 0 -- -- 93
2020-01-10 03:00:00 8.3 4 Sur 14 Noroeste 0 -- -- 96
2020-01-10 02:00:00 9.1 12 Norte 26 Norte 0 -- -- 88
2020-01-10 01:00:00 9.1 3 Norte 8 Oeste 0 -- -- 92
2020-01-10 00:00:00 8.8 2 Sudeste 6 Este 0 -- -- 96
2020-01-09 23:00:00 9 2 Oeste 10 Noroeste 0 -- -- 97
2020-01-09 22:00:00 9.3 0 Calma 9 Norte 0 -- -- 95
2020-01-09 21:00:00 9.8 2 Sudeste 10 Norte 0 -- -- 91
2020-01-09 20:00:00 9.9 2 Sur 11 Este 0 -- -- 96
2020-01-09 19:00:00 10.5 7 Sudeste 27 Sudoeste 0 -- -- 92
2020-01-09 18:00:00 12.7 12 Norte 41 Norte 0 -- -- 74
2020-01-09 17:00:00 15.1 11 Sur 36 Este 0 -- -- 54
2020-01-09 16:00:00 15.6 23 Este 43 Sudeste 0 -- -- 53
2020-01-09 15:00:00 17.2 16 Sur 53 Sur 0 -- -- 45
2020-01-09 14:00:00 16.8 13 Sudeste 38 Sudeste 0 -- -- 47
2020-01-09 13:00:00 16.9 15 Sudeste 35 Sudeste 0 -- -- 48
2020-01-09 12:00:00 16.4 20 Sur 40 Sur 0 -- -- 52
2020-01-09 11:00:00 15.3 16 Sudeste 28 Sudeste 0 -- -- 51
2020-01-09 10:00:00 14.3 4 Sudeste 35 Sudeste 0 -- -- 54
2020-01-09 09:00:00 13.4 17 Sudeste 32 Sudeste 0 -- -- 56
2020-01-09 08:00:00 13 12 Sur 30 Este 0 -- -- 63
2020-01-09 07:00:00 12.8 6 Sur 32 Sur 0 -- -- 64
2020-01-09 06:00:00 13.2 17 Sudeste 35 Sur 0 -- -- 63
2020-01-09 05:00:00 13.3 19 Sudeste 39 Sudeste 0 -- -- 62
2020-01-09 04:00:00 13.2 19 Sudeste 33 Sudeste 0 -- -- 62
2020-01-09 03:00:00 10.7 9 Este 22 Sudeste 0 -- -- 70
2020-01-09 02:00:00 5.8 5 Norte 12 Noroeste 0 -- -- 100
2020-01-09 01:00:00 5.7 4 Norte 9 Noroeste 0 -- -- 100
2020-01-09 00:00:00 5.8 3 Norte 9 Noroeste 0 -- -- 100
2020-01-08 23:00:00 6.1 2 Norte 6 Noroeste 0 -- -- 100
2020-01-08 22:00:00 6.9 4 Noroeste 6 Norte 0 -- -- 99
2020-01-08 21:00:00 7.6 4 Norte 8 Noroeste 0 -- -- 97
2020-01-08 20:00:00 8.4 4 Noroeste 8 Noroeste 0 -- -- 97
2020-01-08 19:00:00 9.8 3 Noroeste 6 Noroeste 0 -- -- 93
2020-01-08 18:00:00 12.3 0 Calma 3 Sur 0 -- -- 80
2020-01-08 17:00:00 15.5 0 Calma 10 Sudoeste 0 -- -- 67
2020-01-08 16:00:00 17.2 5 Sur 14 Sudoeste 0 -- -- 65
2020-01-08 15:00:00 17.2 4 Sudoeste 12 Sudoeste 0 -- -- 63
2020-01-08 14:00:00 16.6 5 Sudoeste 14 Sudoeste 0 -- -- 67
2020-01-08 13:00:00 13.6 0 Calma 8 Sur 0 -- -- 80
2020-01-08 12:00:00 11.2 0 Calma 3 Oeste 0 -- -- 86
2020-01-08 11:00:00 7.9 0 Calma 3 Este 0 -- -- 100
2020-01-08 10:00:00 5.6 0 Calma 5 Norte 0 -- -- 100
2020-01-08 09:00:00 4.7 0 Calma 6 Noroeste 0 -- -- 100
2020-01-08 08:00:00 5 5 Noroeste 8 Noroeste 0 -- -- 100
2020-01-08 07:00:00 5.1 3 Noroeste 6 Noroeste 0 -- -- 100
2020-01-08 06:00:00 5.3 0 Calma 7 Noroeste 0 -- -- 100
2020-01-08 05:00:00 5.3 2 Norte 5 Noroeste 0 -- -- 100
2020-01-08 04:00:00 5.5 0 Calma 3 Norte 0.2 -- -- 100
2020-01-08 03:00:00 5.6 0 Calma 7 Noroeste 0 -- -- 100
2020-01-08 02:00:00 5.8 2 Noroeste 6 Noroeste 0 -- -- 100
2020-01-08 01:00:00 5.6 0 Calma 5 Sur 0 -- -- 99
2020-01-08 00:00:00 6.1 2 Norte 6 Noroeste 0 -- -- 100
2020-01-07 23:00:00 6.1 3 Noroeste 6 Noroeste 0 -- -- 99
2020-01-07 22:00:00 6.6 3 Noroeste 6 Noroeste 0 -- -- 98
2020-01-07 21:00:00 7.3 2 Oeste 6 Sudeste 0 -- -- 95
2020-01-07 20:00:00 8.1 4 Noroeste 8 Noroeste 0 -- -- 96
2020-01-07 19:00:00 9.5 3 Noroeste 5 Noroeste 0 -- -- 90
2020-01-07 18:00:00 11.7 0 Calma 4 Sudoeste 0 -- -- 78
2020-01-07 17:00:00 14.6 2 Sudoeste 11 Sudoeste 0 -- -- 66
2020-01-07 16:00:00 16.3 6 Sur 9 Sur 0 -- -- 62
2020-01-07 15:00:00 16.2 6 Sur 14 Sudoeste 0 -- -- 62
2020-01-07 14:00:00 15.8 6 Sudoeste 9 Sudoeste 0 -- -- 69
2020-01-07 13:00:00 10.4 6 Noroeste 9 Noroeste 0 -- -- 82
2020-01-07 12:00:00 9.5 3 Sudeste 6 Noroeste 0 -- -- 91
2020-01-07 11:00:00 6.6 0 Calma 5 Sudoeste 0 -- -- 98
2020-01-07 10:00:00 4.8 0 Calma 9 Norte 0 -- -- 100
2020-01-07 09:00:00 4.1 2 Noroeste 10 Norte 0 -- -- 100
2020-01-07 08:00:00 4.5 0 Calma 8 Noroeste 0 -- -- 100
2020-01-07 07:00:00 4.5 0 Calma 5 Noroeste 0 -- -- 100
2020-01-07 06:00:00 4.5 0 Calma 5 Norte 0 -- -- 100
2020-01-07 05:00:00 4.4 2 Noroeste 7 Noroeste 0 -- -- 100
2020-01-07 04:00:00 5 0 Calma 8 Noroeste 0 -- -- 99
2020-01-07 03:00:00 5.4 3 Noroeste 10 Norte 0 -- -- 99
2020-01-07 02:00:00 5 3 Sudeste 6 Este 0 -- -- 100
2020-01-07 01:00:00 5 0 Calma 5 Noroeste 0 -- -- 100
2020-01-07 00:00:00 5.3 2 Oeste 5 Noroeste 0 -- -- 98
2020-01-06 23:00:00 6.3 0 Calma 8 Noroeste 0 -- -- 98
2020-01-06 22:00:00 7.1 0 Calma 9 Noroeste 0 -- -- 95
2020-01-06 21:00:00 7.7 0 Calma 5 Noroeste 0 -- -- 94
2020-01-06 20:00:00 8.3 0 Calma 14 Noroeste 0 -- -- 92
2020-01-06 19:00:00 9.4 5 Noroeste 13 Noroeste 0 -- -- 87
2020-01-06 18:00:00 10.7 2 Sur 9 Noroeste 0 -- -- 81
2020-01-06 17:00:00 10.9 5 Noroeste 14 Noroeste 0 -- -- 77
2020-01-06 16:00:00 12.7 7 Noroeste 15 Noroeste 0 -- -- 67
2020-01-06 15:00:00 13.1 5 Noroeste 13 Sur 0 -- -- 59
2020-01-06 14:00:00 13.2 4 Sur 10 Sudoeste 0 -- -- 64
2020-01-06 13:00:00 11.2 2 Sur 6 Sudeste 0 -- -- 73
2020-01-06 12:00:00 7.4 4 Sur 6 Sur 0 -- -- 93
2020-01-06 11:00:00 4.1 0 Calma 3 Nordeste 0 -- -- 100
2020-01-06 10:00:00 1.1 0 Calma 5 Sudoeste 0 -- -- 100